首页
METAR-TAF:

METAR-TAF

机场 :

凯斯门特机场

都柏林, 爱尔兰

纬度: 53-18-06N, 经度: 6-27-04W, 海拔: 97米

当前天气观测

该预报发布于1小时和12分钟前的08:00 UTC
风速2节,风向多变
温度 0°C
湿度 86%
气压 1026 hPa
能见度10公里或以上
少量云层高于2000英尺

METAR: EIME 180800Z VRB02KT 9999 FEW020 M00/M02 Q1026

时间: 09:12 (09:12 UTC)

预报

该预报发布于1小时和12分钟前的08:00 UTC
预报有效从18日的 09点(UTC)到 18日的 18点(UTC)
风速6节,风向西转西南
能见度10公里或以上
少量云层高于2000英尺

TAF: EIME 180800Z 1809/1818 24006KT 9999 FEW020

超过4000个机场的气象观测和天气预报(METAR&TAF报告)。

可查询的气象台以黄色和红色小点在地图上表示。

将鼠标移到小点上方,可查看气象台名称。

然后点击查看天气观测和预报。

如需切换地图:点击带黑十字的绿色按钮放大地图;点击带横线的绿色按钮缩小地图;或者点击绿色箭头查看邻近地区的地图。


METAR-TAF: